sensor_id;sensor_type;location;lat;lon;timestamp;P1;durP1;ratioP1;P2;durP2;ratioP2
23078;SDS011;11707;50.830;4.364;2022-10-14T00:01:02;18.40;;;14.68;;
23078;SDS011;11707;50.830;4.364;2022-10-14T00:03:30;17.85;;;14.50;;
23078;SDS011;11707;50.830;4.364;2022-10-14T00:05:55;17.40;;;13.65;;
23078;SDS011;11707;50.830;4.364;2022-10-14T00:08:22;17.92;;;14.85;;
23078;SDS011;11707;50.830;4.364;2022-10-14T00:10:49;17.70;;;14.57;;
23078;SDS011;11707;50.830;4.364;2022-10-14T00:13:14;17.55;;;14.57;;
23078;SDS011;11707;50.830;4.364;2022-10-14T00:15:40;15.30;;;13.27;;
23078;SDS011;11707;50.830;4.364;2022-10-14T00:18:07;17.48;;;13.93;;
23078;SDS011;11707;50.830;4.364;2022-10-14T00:20:34;17.85;;;13.95;;
23078;SDS011;11707;50.830;4.364;2022-10-14T00:23:00;17.58;;;14.02;;
23078;SDS011;11707;50.830;4.364;2022-10-14T00:25:26;15.93;;;13.52;;
23078;SDS011;11707;50.830;4.364;2022-10-14T00:27:52;21.80;;;14.95;;
23078;SDS011;11707;50.830;4.364;2022-10-14T00:30:19;17.58;;;14.02;;
23078;SDS011;11707;50.830;4.364;2022-10-14T00:32:45;16.02;;;12.80;;
23078;SDS011;11707;50.830;4.364;2022-10-14T00:35:10;19.80;;;12.40;;
23078;SDS011;11707;50.830;4.364;2022-10-14T00:37:36;15.50;;;12.90;;
23078;SDS011;11707;50.830;4.364;2022-10-14T00:40:02;14.65;;;12.32;;
23078;SDS011;11707;50.830;4.364;2022-10-14T00:42:32;14.93;;;12.77;;
23078;SDS011;11707;50.830;4.364;2022-10-14T00:45:00;17.52;;;13.57;;
23078;SDS011;11707;50.830;4.364;2022-10-14T00:47:28;20.08;;;14.18;;
23078;SDS011;11707;50.830;4.364;2022-10-14T00:49:55;15.75;;;13.00;;
23078;SDS011;11707;50.830;4.364;2022-10-14T00:52:23;18.85;;;13.32;;
23078;SDS011;11707;50.830;4.364;2022-10-14T00:54:50;14.75;;;12.57;;
23078;SDS011;11707;50.830;4.364;2022-10-14T00:57:25;17.73;;;13.55;;
23078;SDS011;11707;50.830;4.364;2022-10-14T00:59:53;14.82;;;12.43;;
23078;SDS011;11707;50.830;4.364;2022-10-14T01:02:22;15.70;;;13.50;;
23078;SDS011;11707;50.830;4.364;2022-10-14T01:04:48;17.92;;;12.85;;
23078;SDS011;11707;50.830;4.364;2022-10-14T01:09:59;15.25;;;12.73;;
23078;SDS011;11707;50.830;4.364;2022-10-14T01:16:03;14.18;;;12.63;;
23078;SDS011;11707;50.830;4.364;2022-10-14T01:23:48;23.45;;;14.60;;
23078;SDS011;11707;50.830;4.364;2022-10-14T01:29:24;18.13;;;12.77;;
23078;SDS011;11707;50.830;4.364;2022-10-14T01:32:15;16.83;;;13.47;;
23078;SDS011;11707;50.830;4.364;2022-10-14T01:37:38;17.02;;;13.38;;
23078;SDS011;11707;50.830;4.364;2022-10-14T01:40:13;18.33;;;14.07;;
23078;SDS011;11707;50.830;4.364;2022-10-14T01:42:47;17.15;;;14.02;;
23078;SDS011;11707;50.830;4.364;2022-10-14T01:45:18;18.63;;;14.63;;
23078;SDS011;11707;50.830;4.364;2022-10-14T01:47:49;18.20;;;14.40;;
23078;SDS011;11707;50.830;4.364;2022-10-14T01:50:18;18.23;;;14.40;;
23078;SDS011;11707;50.830;4.364;2022-10-14T01:52:51;19.65;;;13.65;;
23078;SDS011;11707;50.830;4.364;2022-10-14T01:55:24;15.95;;;13.00;;
23078;SDS011;11707;50.830;4.364;2022-10-14T01:57:52;16.75;;;13.35;;
23078;SDS011;11707;50.830;4.364;2022-10-14T02:00:21;20.55;;;13.32;;
23078;SDS011;11707;50.830;4.364;2022-10-14T02:02:46;17.23;;;13.48;;
23078;SDS011;11707;50.830;4.364;2022-10-14T02:05:25;18.15;;;13.70;;
23078;SDS011;11707;50.830;4.364;2022-10-14T02:16:04;17.15;;;13.70;;
23078;SDS011;11707;50.830;4.364;2022-10-14T02:21:11;20.90;;;15.38;;
23078;SDS011;11707;50.830;4.364;2022-10-14T02:24:28;18.38;;;13.82;;
23078;SDS011;11707;50.830;4.364;2022-10-14T02:26:42;16.10;;;13.68;;
23078;SDS011;11707;50.830;4.364;2022-10-14T02:29:09;15.48;;;12.75;;
23078;SDS011;11707;50.830;4.364;2022-10-14T02:31:36;18.65;;;13.90;;
23078;SDS011;11707;50.830;4.364;2022-10-14T02:34:04;18.92;;;13.90;;
23078;SDS011;11707;50.830;4.364;2022-10-14T02:36:35;19.85;;;13.50;;
23078;SDS011;11707;50.830;4.364;2022-10-14T02:39:01;16.38;;;11.68;;
23078;SDS011;11707;50.830;4.364;2022-10-14T02:41:29;15.43;;;12.43;;
23078;SDS011;11707;50.830;4.364;2022-10-14T02:43:59;16.83;;;12.88;;
23078;SDS011;11707;50.830;4.364;2022-10-14T02:46:25;15.88;;;12.57;;
23078;SDS011;11707;50.830;4.364;2022-10-14T02:48:52;13.57;;;11.68;;
23078;SDS011;11707;50.830;4.364;2022-10-14T02:51:18;14.38;;;11.70;;
23078;SDS011;11707;50.830;4.364;2022-10-14T02:53:44;16.75;;;12.77;;
23078;SDS011;11707;50.830;4.364;2022-10-14T02:56:13;17.05;;;12.60;;
23078;SDS011;11707;50.830;4.364;2022-10-14T02:58:39;16.27;;;12.00;;
23078;SDS011;11707;50.830;4.364;2022-10-14T03:01:05;16.70;;;12.50;;
23078;SDS011;11707;50.830;4.364;2022-10-14T03:03:31;14.02;;;11.52;;
23078;SDS011;11707;50.830;4.364;2022-10-14T03:05:57;14.80;;;12.07;;
23078;SDS011;11707;50.830;4.364;2022-10-14T03:08:22;15.27;;;11.45;;
23078;SDS011;11707;50.830;4.364;2022-10-14T03:10:48;15.35;;;11.52;;
23078;SDS011;11707;50.830;4.364;2022-10-14T03:13:14;14.88;;;11.40;;
23078;SDS011;11707;50.830;4.364;2022-10-14T03:15:39;14.02;;;11.43;;
23078;SDS011;11707;50.830;4.364;2022-10-14T03:18:05;14.20;;;10.98;;
23078;SDS011;11707;50.830;4.364;2022-10-14T03:20:30;16.38;;;11.45;;
23078;SDS011;11707;50.830;4.364;2022-10-14T03:22:56;15.63;;;11.10;;
23078;SDS011;11707;50.830;4.364;2022-10-14T03:25:22;11.80;;;10.52;;
23078;SDS011;11707;50.830;4.364;2022-10-14T03:27:48;17.17;;;11.98;;
23078;SDS011;11707;50.830;4.364;2022-10-14T03:30:14;15.23;;;11.02;;
23078;SDS011;11707;50.830;4.364;2022-10-14T03:32:40;13.20;;;10.43;;
23078;SDS011;11707;50.830;4.364;2022-10-14T03:35:06;15.80;;;10.57;;
23078;SDS011;11707;50.830;4.364;2022-10-14T03:37:32;15.82;;;11.73;;
23078;SDS011;11707;50.830;4.364;2022-10-14T03:39:58;17.35;;;11.00;;
23078;SDS011;11707;50.830;4.364;2022-10-14T03:42:23;15.25;;;12.00;;
23078;SDS011;11707;50.830;4.364;2022-10-14T03:44:49;17.55;;;11.95;;
23078;SDS011;11707;50.830;4.364;2022-10-14T03:47:15;16.02;;;12.05;;
23078;SDS011;11707;50.830;4.364;2022-10-14T03:49:40;17.55;;;12.07;;
23078;SDS011;11707;50.830;4.364;2022-10-14T03:52:06;18.40;;;11.88;;
23078;SDS011;11707;50.830;4.364;2022-10-14T03:54:31;18.30;;;13.00;;
23078;SDS011;11707;50.830;4.364;2022-10-14T03:56:57;14.45;;;11.55;;
23078;SDS011;11707;50.830;4.364;2022-10-14T03:59:23;17.33;;;12.77;;
23078;SDS011;11707;50.830;4.364;2022-10-14T04:01:49;17.90;;;12.13;;
23078;SDS011;11707;50.830;4.364;2022-10-14T04:04:14;18.15;;;12.63;;
23078;SDS011;11707;50.830;4.364;2022-10-14T04:06:40;19.52;;;14.27;;
23078;SDS011;11707;50.830;4.364;2022-10-14T04:09:06;18.98;;;12.32;;
23078;SDS011;11707;50.830;4.364;2022-10-14T04:11:32;16.73;;;13.23;;
23078;SDS011;11707;50.830;4.364;2022-10-14T04:13:58;17.20;;;12.80;;
23078;SDS011;11707;50.830;4.364;2022-10-14T04:16:24;16.75;;;13.05;;
23078;SDS011;11707;50.830;4.364;2022-10-14T04:18:51;22.75;;;14.15;;
23078;SDS011;11707;50.830;4.364;2022-10-14T04:21:17;18.58;;;13.38;;
23078;SDS011;11707;50.830;4.364;2022-10-14T04:23:43;22.33;;;13.48;;
23078;SDS011;11707;50.830;4.364;2022-10-14T04:26:09;19.27;;;12.68;;
23078;SDS011;11707;50.830;4.364;2022-10-14T04:28:35;18.02;;;12.07;;
23078;SDS011;11707;50.830;4.364;2022-10-14T04:31:02;17.42;;;12.40;;
23078;SDS011;11707;50.830;4.364;2022-10-14T04:33:28;21.05;;;12.68;;
23078;SDS011;11707;50.830;4.364;2022-10-14T04:36:01;18.17;;;12.68;;
23078;SDS011;11707;50.830;4.364;2022-10-14T04:38:29;20.05;;;13.52;;
23078;SDS011;11707;50.830;4.364;2022-10-14T04:40:55;19.52;;;13.27;;
23078;SDS011;11707;50.830;4.364;2022-10-14T04:43:21;26.02;;;13.35;;
23078;SDS011;11707;50.830;4.364;2022-10-14T04:45:47;18.00;;;13.30;;
23078;SDS011;11707;50.830;4.364;2022-10-14T04:48:13;17.85;;;12.20;;
23078;SDS011;11707;50.830;4.364;2022-10-14T04:50:39;18.92;;;12.32;;
23078;SDS011;11707;50.830;4.364;2022-10-14T04:53:06;17.38;;;11.23;;
23078;SDS011;11707;50.830;4.364;2022-10-14T04:55:32;20.25;;;12.82;;
23078;SDS011;11707;50.830;4.364;2022-10-14T04:57:58;19.90;;;12.40;;
23078;SDS011;11707;50.830;4.364;2022-10-14T05:00:23;22.98;;;13.68;;
23078;SDS011;11707;50.830;4.364;2022-10-14T05:02:49;19.92;;;12.93;;
23078;SDS011;11707;50.830;4.364;2022-10-14T05:05:15;20.27;;;12.73;;
23078;SDS011;11707;50.830;4.364;2022-10-14T05:07:41;22.83;;;13.27;;
23078;SDS011;11707;50.830;4.364;2022-10-14T05:10:07;19.85;;;13.05;;
23078;SDS011;11707;50.830;4.364;2022-10-14T05:12:36;20.25;;;12.93;;
23078;SDS011;11707;50.830;4.364;2022-10-14T05:15:03;18.42;;;13.18;;
23078;SDS011;11707;50.830;4.364;2022-10-14T05:17:29;21.08;;;13.23;;
23078;SDS011;11707;50.830;4.364;2022-10-14T05:19:56;20.23;;;14.02;;
23078;SDS011;11707;50.830;4.364;2022-10-14T05:22:22;23.48;;;14.15;;
23078;SDS011;11707;50.830;4.364;2022-10-14T05:24:47;19.10;;;13.13;;
23078;SDS011;11707;50.830;4.364;2022-10-14T05:27:13;26.90;;;14.30;;
23078;SDS011;11707;50.830;4.364;2022-10-14T05:29:39;23.20;;;14.05;;
23078;SDS011;11707;50.830;4.364;2022-10-14T05:32:04;23.55;;;14.27;;
23078;SDS011;11707;50.830;4.364;2022-10-14T05:34:31;26.10;;;14.35;;
23078;SDS011;11707;50.830;4.364;2022-10-14T05:36:57;23.20;;;14.05;;
23078;SDS011;11707;50.830;4.364;2022-10-14T05:39:23;22.17;;;14.48;;
23078;SDS011;11707;50.830;4.364;2022-10-14T05:41:48;21.88;;;13.68;;
23078;SDS011;11707;50.830;4.364;2022-10-14T05:44:14;25.08;;;14.30;;
23078;SDS011;11707;50.830;4.364;2022-10-14T05:46:40;23.55;;;13.98;;
23078;SDS011;11707;50.830;4.364;2022-10-14T05:49:05;22.05;;;14.13;;
23078;SDS011;11707;50.830;4.364;2022-10-14T05:51:32;26.55;;;14.65;;
23078;SDS011;11707;50.830;4.364;2022-10-14T05:53:57;23.45;;;14.75;;
23078;SDS011;11707;50.830;4.364;2022-10-14T05:56:24;29.48;;;14.57;;
23078;SDS011;11707;50.830;4.364;2022-10-14T05:58:49;26.98;;;14.50;;
23078;SDS011;11707;50.830;4.364;2022-10-14T06:01:15;25.50;;;15.40;;
23078;SDS011;11707;50.830;4.364;2022-10-14T06:03:41;21.70;;;14.80;;
23078;SDS011;11707;50.830;4.364;2022-10-14T06:06:10;25.88;;;15.75;;
23078;SDS011;11707;50.830;4.364;2022-10-14T06:08:39;22.77;;;15.15;;
23078;SDS011;11707;50.830;4.364;2022-10-14T06:11:05;24.75;;;15.43;;
23078;SDS011;11707;50.830;4.364;2022-10-14T06:13:32;25.13;;;14.52;;
23078;SDS011;11707;50.830;4.364;2022-10-14T06:16:01;24.75;;;15.32;;
23078;SDS011;11707;50.830;4.364;2022-10-14T06:18:32;26.45;;;14.88;;
23078;SDS011;11707;50.830;4.364;2022-10-14T06:20:58;23.45;;;14.55;;
23078;SDS011;11707;50.830;4.364;2022-10-14T06:23:24;21.25;;;15.02;;
23078;SDS011;11707;50.830;4.364;2022-10-14T06:25:50;21.83;;;13.93;;
23078;SDS011;11707;50.830;4.364;2022-10-14T06:28:16;23.02;;;14.05;;
23078;SDS011;11707;50.830;4.364;2022-10-14T06:30:42;25.30;;;14.77;;
23078;SDS011;11707;50.830;4.364;2022-10-14T06:33:12;24.45;;;14.90;;
23078;SDS011;11707;50.830;4.364;2022-10-14T06:35:38;20.85;;;13.30;;
23078;SDS011;11707;50.830;4.364;2022-10-14T06:38:04;20.55;;;13.35;;
23078;SDS011;11707;50.830;4.364;2022-10-14T06:40:29;19.05;;;12.93;;
23078;SDS011;11707;50.830;4.364;2022-10-14T06:42:56;22.77;;;13.73;;
23078;SDS011;11707;50.830;4.364;2022-10-14T06:45:23;21.15;;;14.63;;
23078;SDS011;11707;50.830;4.364;2022-10-14T06:47:49;22.83;;;14.13;;
23078;SDS011;11707;50.830;4.364;2022-10-14T06:50:15;18.38;;;13.20;;
23078;SDS011;11707;50.830;4.364;2022-10-14T06:52:43;21.63;;;13.82;;
23078;SDS011;11707;50.830;4.364;2022-10-14T06:55:09;21.00;;;13.55;;
23078;SDS011;11707;50.830;4.364;2022-10-14T06:57:35;23.00;;;13.65;;
23078;SDS011;11707;50.830;4.364;2022-10-14T07:00:01;18.13;;;12.85;;
23078;SDS011;11707;50.830;4.364;2022-10-14T07:02:27;18.55;;;12.98;;
23078;SDS011;11707;50.830;4.364;2022-10-14T07:04:53;21.33;;;12.73;;
23078;SDS011;11707;50.830;4.364;2022-10-14T07:07:19;21.75;;;15.00;;
23078;SDS011;11707;50.830;4.364;2022-10-14T07:09:44;22.75;;;13.57;;
23078;SDS011;11707;50.830;4.364;2022-10-14T07:12:10;19.48;;;14.48;;
23078;SDS011;11707;50.830;4.364;2022-10-14T07:14:42;26.33;;;14.25;;
23078;SDS011;11707;50.830;4.364;2022-10-14T07:17:08;19.85;;;14.10;;
23078;SDS011;11707;50.830;4.364;2022-10-14T07:19:33;17.65;;;12.77;;
23078;SDS011;11707;50.830;4.364;2022-10-14T07:21:59;17.42;;;12.32;;
23078;SDS011;11707;50.830;4.364;2022-10-14T07:24:25;18.38;;;12.63;;
23078;SDS011;11707;50.830;4.364;2022-10-14T07:26:51;20.88;;;13.25;;
23078;SDS011;11707;50.830;4.364;2022-10-14T07:29:17;20.02;;;12.25;;
23078;SDS011;11707;50.830;4.364;2022-10-14T07:31:43;15.73;;;11.77;;
23078;SDS011;11707;50.830;4.364;2022-10-14T07:34:08;18.60;;;12.40;;
23078;SDS011;11707;50.830;4.364;2022-10-14T07:36:34;15.18;;;11.95;;
23078;SDS011;11707;50.830;4.364;2022-10-14T07:39:01;17.65;;;12.18;;
23078;SDS011;11707;50.830;4.364;2022-10-14T07:41:28;17.42;;;11.57;;
23078;SDS011;11707;50.830;4.364;2022-10-14T07:43:56;12.80;;;10.90;;
23078;SDS011;11707;50.830;4.364;2022-10-14T07:46:26;13.70;;;10.90;;
23078;SDS011;11707;50.830;4.364;2022-10-14T07:48:59;13.20;;;10.15;;
23078;SDS011;11707;50.830;4.364;2022-10-14T07:51:27;11.32;;;9.40;;
23078;SDS011;11707;50.830;4.364;2022-10-14T07:53:53;12.82;;;9.23;;
23078;SDS011;11707;50.830;4.364;2022-10-14T07:56:20;16.42;;;10.40;;
23078;SDS011;11707;50.830;4.364;2022-10-14T07:58:46;13.30;;;10.10;;
23078;SDS011;11707;50.830;4.364;2022-10-14T08:01:12;15.82;;;9.65;;
23078;SDS011;11707;50.830;4.364;2022-10-14T08:03:40;11.35;;;9.48;;
23078;SDS011;11707;50.830;4.364;2022-10-14T08:06:09;11.60;;;9.15;;
23078;SDS011;11707;50.830;4.364;2022-10-14T08:08:35;11.00;;;8.48;;
23078;SDS011;11707;50.830;4.364;2022-10-14T08:11:21;11.98;;;8.85;;
23078;SDS011;11707;50.830;4.364;2022-10-14T08:13:49;13.55;;;9.02;;
23078;SDS011;11707;50.830;4.364;2022-10-14T08:16:17;12.85;;;9.23;;
23078;SDS011;11707;50.830;4.364;2022-10-14T08:19:03;15.10;;;10.25;;
23078;SDS011;11707;50.830;4.364;2022-10-14T08:21:31;10.88;;;8.45;;
23078;SDS011;11707;50.830;4.364;2022-10-14T08:23:57;11.57;;;8.52;;
23078;SDS011;11707;50.830;4.364;2022-10-14T08:28:51;10.50;;;8.23;;
23078;SDS011;11707;50.830;4.364;2022-10-14T08:31:18;10.82;;;8.35;;
23078;SDS011;11707;50.830;4.364;2022-10-14T08:33:44;14.73;;;9.10;;
23078;SDS011;11707;50.830;4.364;2022-10-14T08:36:10;12.13;;;8.35;;
23078;SDS011;11707;50.830;4.364;2022-10-14T08:38:36;11.18;;;8.85;;
23078;SDS011;11707;50.830;4.364;2022-10-14T08:51:48;9.13;;;6.70;;
23078;SDS011;11707;50.830;4.364;2022-10-14T08:54:37;9.27;;;5.80;;
23078;SDS011;11707;50.830;4.364;2022-10-14T08:57:20;9.30;;;6.13;;
23078;SDS011;11707;50.830;4.364;2022-10-14T08:59:50;7.45;;;5.30;;
23078;SDS011;11707;50.830;4.364;2022-10-14T09:04:55;6.47;;;5.43;;
23078;SDS011;11707;50.830;4.364;2022-10-14T09:07:22;13.20;;;6.43;;
23078;SDS011;11707;50.830;4.364;2022-10-14T09:09:50;9.05;;;4.85;;
23078;SDS011;11707;50.830;4.364;2022-10-14T09:12:22;9.20;;;5.13;;
23078;SDS011;11707;50.830;4.364;2022-10-14T09:15:04;5.30;;;4.60;;
23078;SDS011;11707;50.830;4.364;2022-10-14T09:17:43;8.75;;;4.55;;
23078;SDS011;11707;50.830;4.364;2022-10-14T09:20:18;6.72;;;4.82;;
23078;SDS011;11707;50.830;4.364;2022-10-14T09:22:49;6.90;;;4.55;;
23078;SDS011;11707;50.830;4.364;2022-10-14T09:25:24;5.05;;;4.15;;
23078;SDS011;11707;50.830;4.364;2022-10-14T09:27:50;5.63;;;4.57;;
23078;SDS011;11707;50.830;4.364;2022-10-14T09:30:16;3.90;;;3.38;;
23078;SDS011;11707;50.830;4.364;2022-10-14T09:32:47;15.52;;;10.50;;
23078;SDS011;11707;50.830;4.364;2022-10-14T09:35:22;7.28;;;4.10;;
23078;SDS011;11707;50.830;4.364;2022-10-14T09:38:04;6.93;;;4.57;;
23078;SDS011;11707;50.830;4.364;2022-10-14T09:50:52;4.03;;;2.80;;
23078;SDS011;11707;50.830;4.364;2022-10-14T09:53:27;8.50;;;5.97;;
23078;SDS011;11707;50.830;4.364;2022-10-14T09:56:02;6.65;;;3.90;;
23078;SDS011;11707;50.830;4.364;2022-10-14T09:58:49;6.50;;;2.85;;
23078;SDS011;11707;50.830;4.364;2022-10-14T10:01:19;6.03;;;3.25;;
23078;SDS011;11707;50.830;4.364;2022-10-14T10:03:47;5.22;;;3.72;;
23078;SDS011;11707;50.830;4.364;2022-10-14T10:06:15;4.35;;;3.80;;
23078;SDS011;11707;50.830;4.364;2022-10-14T10:11:55;4.07;;;3.28;;
23078;SDS011;11707;50.830;4.364;2022-10-14T10:14:16;4.88;;;3.72;;
23078;SDS011;11707;50.830;4.364;2022-10-14T10:16:49;5.40;;;3.88;;
23078;SDS011;11707;50.830;4.364;2022-10-14T10:19:35;10.10;;;4.30;;
23078;SDS011;11707;50.830;4.364;2022-10-14T10:22:26;29.30;;;6.50;;
23078;SDS011;11707;50.830;4.364;2022-10-14T10:27:31;91.55;;;13.38;;
23078;SDS011;11707;50.830;4.364;2022-10-14T10:43:19;74.28;;;12.40;;
23078;SDS011;11707;50.830;4.364;2022-10-14T10:46:25;50.38;;;9.07;;
23078;SDS011;11707;50.830;4.364;2022-10-14T10:49:43;23.17;;;7.07;;
23078;SDS011;11707;50.830;4.364;2022-10-14T10:55:40;20.55;;;7.90;;
23078;SDS011;11707;50.830;4.364;2022-10-14T11:09:48;6.82;;;6.10;;
23078;SDS011;11707;50.830;4.364;2022-10-14T11:13:03;10.43;;;6.63;;
23078;SDS011;11707;50.830;4.364;2022-10-14T11:15:44;14.80;;;7.63;;
23078;SDS011;11707;50.830;4.364;2022-10-14T11:21:36;19.45;;;8.98;;
23078;SDS011;11707;50.830;4.364;2022-10-14T11:26:27;19.10;;;9.52;;
23078;SDS011;11707;50.830;4.364;2022-10-14T11:32:12;28.40;;;9.00;;
23078;SDS011;11707;50.830;4.364;2022-10-14T11:38:04;26.92;;;8.68;;
23078;SDS011;11707;50.830;4.364;2022-10-14T11:40:44;7.88;;;5.97;;
23078;SDS011;11707;50.830;4.364;2022-10-14T11:46:08;10.30;;;6.82;;
23078;SDS011;11707;50.830;4.364;2022-10-14T11:51:32;11.95;;;7.28;;
23078;SDS011;11707;50.830;4.364;2022-10-14T11:54:09;9.65;;;7.22;;
23078;SDS011;11707;50.830;4.364;2022-10-14T11:59:43;9.40;;;8.40;;
23078;SDS011;11707;50.830;4.364;2022-10-14T12:02:18;9.80;;;8.60;;
23078;SDS011;11707;50.830;4.364;2022-10-14T12:04:55;12.57;;;9.25;;
23078;SDS011;11707;50.830;4.364;2022-10-14T12:07:31;11.38;;;9.25;;
23078;SDS011;11707;50.830;4.364;2022-10-14T12:10:05;12.25;;;9.77;;
23078;SDS011;11707;50.830;4.364;2022-10-14T12:13:00;14.48;;;10.20;;
23078;SDS011;11707;50.830;4.364;2022-10-14T12:15:31;18.02;;;11.60;;
23078;SDS011;11707;50.830;4.364;2022-10-14T12:18:00;19.45;;;16.48;;
23078;SDS011;11707;50.830;4.364;2022-10-14T12:22:57;12.52;;;11.23;;
23078;SDS011;11707;50.830;4.364;2022-10-14T12:25:25;13.05;;;11.75;;
23078;SDS011;11707;50.830;4.364;2022-10-14T12:27:53;13.18;;;11.77;;
23078;SDS011;11707;50.830;4.364;2022-10-14T12:30:39;12.98;;;10.68;;
23078;SDS011;11707;50.830;4.364;2022-10-14T12:33:08;13.57;;;11.85;;
23078;SDS011;11707;50.830;4.364;2022-10-14T12:35:46;14.15;;;10.68;;
23078;SDS011;11707;50.830;4.364;2022-10-14T12:38:17;14.65;;;11.75;;
23078;SDS011;11707;50.830;4.364;2022-10-14T12:40:44;15.90;;;11.88;;
23078;SDS011;11707;50.830;4.364;2022-10-14T12:43:14;13.98;;;11.88;;
23078;SDS011;11707;50.830;4.364;2022-10-14T12:51:17;16.27;;;10.82;;
23078;SDS011;11707;50.830;4.364;2022-10-14T12:53:47;12.45;;;11.00;;
23078;SDS011;11707;50.830;4.364;2022-10-14T12:56:43;15.73;;;11.68;;
23078;SDS011;11707;50.830;4.364;2022-10-14T12:59:35;16.08;;;11.38;;
23078;SDS011;11707;50.830;4.364;2022-10-14T13:02:17;13.55;;;10.98;;
23078;SDS011;11707;50.830;4.364;2022-10-14T13:04:51;13.40;;;10.55;;
23078;SDS011;11707;50.830;4.364;2022-10-14T13:07:29;12.43;;;10.23;;
23078;SDS011;11707;50.830;4.364;2022-10-14T13:12:54;15.50;;;9.38;;
23078;SDS011;11707;50.830;4.364;2022-10-14T13:15:36;13.55;;;9.23;;
23078;SDS011;11707;50.830;4.364;2022-10-14T13:21:04;10.60;;;9.25;;
23078;SDS011;11707;50.830;4.364;2022-10-14T13:31:22;11.50;;;9.27;;
23078;SDS011;11707;50.830;4.364;2022-10-14T13:34:03;12.43;;;9.68;;
23078;SDS011;11707;50.830;4.364;2022-10-14T13:36:36;11.50;;;9.30;;
23078;SDS011;11707;50.830;4.364;2022-10-14T13:39:12;10.82;;;9.18;;
23078;SDS011;11707;50.830;4.364;2022-10-14T13:41:41;10.60;;;8.27;;
23078;SDS011;11707;50.830;4.364;2022-10-14T13:44:09;10.95;;;9.77;;
23078;SDS011;11707;50.830;4.364;2022-10-14T13:46:38;12.18;;;9.18;;
23078;SDS011;11707;50.830;4.364;2022-10-14T13:49:10;12.02;;;8.63;;
23078;SDS011;11707;50.830;4.364;2022-10-14T13:51:43;12.07;;;9.80;;
23078;SDS011;11707;50.830;4.364;2022-10-14T13:56:54;12.88;;;11.55;;
23078;SDS011;11707;50.830;4.364;2022-10-14T13:59:40;12.98;;;9.70;;
23078;SDS011;11707;50.830;4.364;2022-10-14T14:02:28;13.43;;;10.23;;
23078;SDS011;11707;50.830;4.364;2022-10-14T14:04:54;11.98;;;10.25;;
23078;SDS011;11707;50.830;4.364;2022-10-14T14:07:22;13.60;;;10.00;;
23078;SDS011;11707;50.830;4.364;2022-10-14T14:09:51;11.15;;;9.20;;
23078;SDS011;11707;50.830;4.364;2022-10-14T14:12:24;11.40;;;9.40;;
23078;SDS011;11707;50.830;4.364;2022-10-14T14:14:50;13.52;;;10.50;;
23078;SDS011;11707;50.830;4.364;2022-10-14T14:17:22;13.05;;;10.57;;
23078;SDS011;11707;50.830;4.364;2022-10-14T14:19:51;12.93;;;9.45;;
23078;SDS011;11707;50.830;4.364;2022-10-14T14:24:48;11.77;;;9.57;;
23078;SDS011;11707;50.830;4.364;2022-10-14T14:27:19;10.30;;;7.60;;
23078;SDS011;11707;50.830;4.364;2022-10-14T14:29:50;8.60;;;7.60;;
23078;SDS011;11707;50.830;4.364;2022-10-14T14:32:39;12.50;;;11.20;;
23078;SDS011;11707;50.830;4.364;2022-10-14T14:35:04;10.73;;;9.25;;
23078;SDS011;11707;50.830;4.364;2022-10-14T14:37:40;11.40;;;9.23;;
23078;SDS011;11707;50.830;4.364;2022-10-14T14:40:21;11.13;;;8.65;;
23078;SDS011;11707;50.830;4.364;2022-10-14T14:42:48;13.30;;;11.88;;
23078;SDS011;11707;50.830;4.364;2022-10-14T14:45:39;12.07;;;9.25;;
23078;SDS011;11707;50.830;4.364;2022-10-14T14:48:06;10.77;;;8.93;;
23078;SDS011;11707;50.830;4.364;2022-10-14T14:50:36;9.30;;;8.30;;
23078;SDS011;11707;50.830;4.364;2022-10-14T14:53:10;13.43;;;9.52;;
23078;SDS011;11707;50.830;4.364;2022-10-14T15:00:58;12.88;;;8.70;;
23078;SDS011;11707;50.830;4.364;2022-10-14T15:03:25;9.20;;;8.27;;
23078;SDS011;11707;50.830;4.364;2022-10-14T15:06:03;9.95;;;7.90;;
23078;SDS011;11707;50.830;4.364;2022-10-14T15:08:34;20.23;;;16.27;;
23078;SDS011;11707;50.830;4.364;2022-10-14T15:11:03;15.18;;;12.60;;
23078;SDS011;11707;50.830;4.364;2022-10-14T15:16:07;10.40;;;7.68;;
23078;SDS011;11707;50.830;4.364;2022-10-14T15:18:33;11.95;;;8.25;;
23078;SDS011;11707;50.830;4.364;2022-10-14T15:23:40;11.45;;;8.30;;
23078;SDS011;11707;50.830;4.364;2022-10-14T15:31:32;15.07;;;9.13;;
23078;SDS011;11707;50.830;4.364;2022-10-14T15:33:59;33.97;;;11.90;;
23078;SDS011;11707;50.830;4.364;2022-10-14T15:36:26;12.90;;;9.23;;
23078;SDS011;11707;50.830;4.364;2022-10-14T15:38:54;8.35;;;6.75;;
23078;SDS011;11707;50.830;4.364;2022-10-14T15:41:22;15.50;;;7.70;;
23078;SDS011;11707;50.830;4.364;2022-10-14T15:43:50;7.47;;;5.85;;
23078;SDS011;11707;50.830;4.364;2022-10-14T15:46:15;10.18;;;7.28;;
23078;SDS011;11707;50.830;4.364;2022-10-14T15:49:00;9.48;;;6.65;;
23078;SDS011;11707;50.830;4.364;2022-10-14T15:51:28;7.10;;;5.72;;
23078;SDS011;11707;50.830;4.364;2022-10-14T15:53:55;10.13;;;5.35;;
23078;SDS011;11707;50.830;4.364;2022-10-14T15:56:22;8.45;;;5.47;;
23078;SDS011;11707;50.830;4.364;2022-10-14T15:58:48;9.93;;;5.63;;
23078;SDS011;11707;50.830;4.364;2022-10-14T16:01:17;8.65;;;6.10;;
23078;SDS011;11707;50.830;4.364;2022-10-14T16:03:45;9.60;;;6.15;;
23078;SDS011;11707;50.830;4.364;2022-10-14T16:06:12;6.63;;;5.57;;
23078;SDS011;11707;50.830;4.364;2022-10-14T16:08:39;7.90;;;6.20;;
23078;SDS011;11707;50.830;4.364;2022-10-14T16:11:09;9.40;;;6.68;;
23078;SDS011;11707;50.830;4.364;2022-10-14T16:13:43;7.45;;;5.50;;
23078;SDS011;11707;50.830;4.364;2022-10-14T16:16:09;12.32;;;6.18;;
23078;SDS011;11707;50.830;4.364;2022-10-14T16:18:37;21.83;;;19.42;;
23078;SDS011;11707;50.830;4.364;2022-10-14T16:21:02;10.73;;;6.95;;
23078;SDS011;11707;50.830;4.364;2022-10-14T16:23:28;15.55;;;8.55;;
23078;SDS011;11707;50.830;4.364;2022-10-14T16:25:54;14.88;;;8.70;;
23078;SDS011;11707;50.830;4.364;2022-10-14T16:28:22;15.10;;;9.70;;
23078;SDS011;11707;50.830;4.364;2022-10-14T16:30:48;16.67;;;14.15;;
23078;SDS011;11707;50.830;4.364;2022-10-14T16:33:15;11.18;;;7.55;;
23078;SDS011;11707;50.830;4.364;2022-10-14T16:35:41;9.43;;;7.28;;
23078;SDS011;11707;50.830;4.364;2022-10-14T16:38:10;15.50;;;10.80;;
23078;SDS011;11707;50.830;4.364;2022-10-14T16:40:37;11.23;;;8.13;;
23078;SDS011;11707;50.830;4.364;2022-10-14T16:43:03;14.02;;;7.93;;
23078;SDS011;11707;50.830;4.364;2022-10-14T16:45:28;9.65;;;7.88;;
23078;SDS011;11707;50.830;4.364;2022-10-14T16:47:54;12.32;;;6.90;;
23078;SDS011;11707;50.830;4.364;2022-10-14T16:50:21;11.43;;;5.88;;
23078;SDS011;11707;50.830;4.364;2022-10-14T16:52:47;8.38;;;5.55;;
23078;SDS011;11707;50.830;4.364;2022-10-14T16:55:31;15.43;;;9.00;;
23078;SDS011;11707;50.830;4.364;2022-10-14T16:57:57;13.32;;;9.63;;
23078;SDS011;11707;50.830;4.364;2022-10-14T17:00:23;11.60;;;8.57;;
23078;SDS011;11707;50.830;4.364;2022-10-14T17:02:49;12.50;;;7.03;;
23078;SDS011;11707;50.830;4.364;2022-10-14T17:05:14;11.38;;;6.38;;
23078;SDS011;11707;50.830;4.364;2022-10-14T17:07:40;9.82;;;6.93;;
23078;SDS011;11707;50.830;4.364;2022-10-14T17:10:07;12.43;;;7.85;;
23078;SDS011;11707;50.830;4.364;2022-10-14T17:12:33;12.80;;;10.23;;
23078;SDS011;11707;50.830;4.364;2022-10-14T17:14:59;14.10;;;8.68;;